sensor_id;sensor_type;location;lat;lon;timestamp;P1;durP1;ratioP1;P2;durP2;ratioP2
60634;SDS011;46454;53.170;6.630;2022-07-05T00:00:59;6.18;;;3.10;;
60634;SDS011;46454;53.170;6.630;2022-07-05T00:03:25;6.13;;;3.33;;
60634;SDS011;46454;53.170;6.630;2022-07-05T00:05:52;6.15;;;3.10;;
60634;SDS011;46454;53.170;6.630;2022-07-05T00:08:18;5.40;;;3.47;;
60634;SDS011;46454;53.170;6.630;2022-07-05T00:10:43;6.13;;;3.40;;
60634;SDS011;46454;53.170;6.630;2022-07-05T00:13:09;5.63;;;3.40;;
60634;SDS011;46454;53.170;6.630;2022-07-05T00:15:36;3.85;;;2.85;;
60634;SDS011;46454;53.170;6.630;2022-07-05T00:18:01;5.30;;;3.30;;
60634;SDS011;46454;53.170;6.630;2022-07-05T00:20:27;6.25;;;3.20;;
60634;SDS011;46454;53.170;6.630;2022-07-05T00:22:53;4.85;;;3.35;;
60634;SDS011;46454;53.170;6.630;2022-07-05T00:25:19;4.53;;;3.30;;
60634;SDS011;46454;53.170;6.630;2022-07-05T00:27:44;4.25;;;3.30;;
60634;SDS011;46454;53.170;6.630;2022-07-05T00:30:11;5.45;;;3.45;;
60634;SDS011;46454;53.170;6.630;2022-07-05T00:32:38;5.15;;;3.40;;
60634;SDS011;46454;53.170;6.630;2022-07-05T00:35:04;6.63;;;3.30;;
60634;SDS011;46454;53.170;6.630;2022-07-05T00:37:31;4.82;;;3.70;;
60634;SDS011;46454;53.170;6.630;2022-07-05T00:39:56;6.43;;;3.63;;
60634;SDS011;46454;53.170;6.630;2022-07-05T00:42:22;6.43;;;3.50;;
60634;SDS011;46454;53.170;6.630;2022-07-05T00:44:48;5.63;;;3.55;;
60634;SDS011;46454;53.170;6.630;2022-07-05T00:47:14;5.97;;;3.70;;
60634;SDS011;46454;53.170;6.630;2022-07-05T00:49:40;7.28;;;4.07;;
60634;SDS011;46454;53.170;6.630;2022-07-05T00:52:07;6.03;;;3.90;;
60634;SDS011;46454;53.170;6.630;2022-07-05T00:54:35;5.72;;;4.00;;
60634;SDS011;46454;53.170;6.630;2022-07-05T00:57:02;7.57;;;3.65;;
60634;SDS011;46454;53.170;6.630;2022-07-05T00:59:29;6.38;;;4.18;;
60634;SDS011;46454;53.170;6.630;2022-07-05T01:01:55;6.57;;;4.25;;
60634;SDS011;46454;53.170;6.630;2022-07-05T01:04:21;6.25;;;3.85;;
60634;SDS011;46454;53.170;6.630;2022-07-05T01:06:48;6.18;;;4.10;;
60634;SDS011;46454;53.170;6.630;2022-07-05T01:09:15;5.68;;;3.95;;
60634;SDS011;46454;53.170;6.630;2022-07-05T01:11:49;6.43;;;4.15;;
60634;SDS011;46454;53.170;6.630;2022-07-05T01:14:16;5.63;;;3.83;;
60634;SDS011;46454;53.170;6.630;2022-07-05T01:16:43;6.05;;;4.20;;
60634;SDS011;46454;53.170;6.630;2022-07-05T01:19:10;4.68;;;3.67;;
60634;SDS011;46454;53.170;6.630;2022-07-05T01:21:38;6.38;;;4.35;;
60634;SDS011;46454;53.170;6.630;2022-07-05T01:24:05;5.43;;;4.00;;
60634;SDS011;46454;53.170;6.630;2022-07-05T01:26:32;7.40;;;4.03;;
60634;SDS011;46454;53.170;6.630;2022-07-05T01:28:58;6.10;;;3.90;;
60634;SDS011;46454;53.170;6.630;2022-07-05T01:31:23;6.07;;;3.65;;
60634;SDS011;46454;53.170;6.630;2022-07-05T01:33:49;5.97;;;4.10;;
60634;SDS011;46454;53.170;6.630;2022-07-05T01:36:15;5.03;;;3.85;;
60634;SDS011;46454;53.170;6.630;2022-07-05T01:38:41;7.00;;;3.90;;
60634;SDS011;46454;53.170;6.630;2022-07-05T01:41:07;6.68;;;4.05;;
60634;SDS011;46454;53.170;6.630;2022-07-05T01:43:34;5.30;;;4.25;;
60634;SDS011;46454;53.170;6.630;2022-07-05T01:46:01;6.13;;;4.05;;
60634;SDS011;46454;53.170;6.630;2022-07-05T01:48:29;6.13;;;4.38;;
60634;SDS011;46454;53.170;6.630;2022-07-05T01:51:05;6.65;;;4.28;;
60634;SDS011;46454;53.170;6.630;2022-07-05T01:53:39;6.35;;;4.68;;
60634;SDS011;46454;53.170;6.630;2022-07-05T01:56:06;8.43;;;4.38;;
60634;SDS011;46454;53.170;6.630;2022-07-05T01:58:32;6.90;;;4.63;;
60634;SDS011;46454;53.170;6.630;2022-07-05T02:00:58;6.20;;;4.50;;
60634;SDS011;46454;53.170;6.630;2022-07-05T02:03:24;7.63;;;4.82;;
60634;SDS011;46454;53.170;6.630;2022-07-05T02:05:51;7.60;;;4.85;;
60634;SDS011;46454;53.170;6.630;2022-07-05T02:08:18;7.25;;;5.20;;
60634;SDS011;46454;53.170;6.630;2022-07-05T02:10:46;7.38;;;5.22;;
60634;SDS011;46454;53.170;6.630;2022-07-05T02:13:12;5.28;;;4.60;;
60634;SDS011;46454;53.170;6.630;2022-07-05T02:15:39;7.00;;;4.80;;
60634;SDS011;46454;53.170;6.630;2022-07-05T02:18:06;6.13;;;4.60;;
60634;SDS011;46454;53.170;6.630;2022-07-05T02:20:33;6.78;;;4.30;;
60634;SDS011;46454;53.170;6.630;2022-07-05T02:23:00;8.07;;;4.80;;
60634;SDS011;46454;53.170;6.630;2022-07-05T02:25:26;6.95;;;4.93;;
60634;SDS011;46454;53.170;6.630;2022-07-05T02:27:52;6.30;;;4.90;;
60634;SDS011;46454;53.170;6.630;2022-07-05T02:30:18;7.20;;;4.80;;
60634;SDS011;46454;53.170;6.630;2022-07-05T02:32:44;7.57;;;5.50;;
60634;SDS011;46454;53.170;6.630;2022-07-05T02:35:11;8.48;;;5.18;;
60634;SDS011;46454;53.170;6.630;2022-07-05T02:37:37;7.03;;;5.00;;
60634;SDS011;46454;53.170;6.630;2022-07-05T02:40:07;6.28;;;4.80;;
60634;SDS011;46454;53.170;6.630;2022-07-05T02:42:35;7.85;;;5.90;;
60634;SDS011;46454;53.170;6.630;2022-07-05T02:45:01;7.13;;;5.10;;
60634;SDS011;46454;53.170;6.630;2022-07-05T02:47:30;7.75;;;4.78;;
60634;SDS011;46454;53.170;6.630;2022-07-05T02:50:03;5.88;;;4.80;;
60634;SDS011;46454;53.170;6.630;2022-07-05T02:52:30;6.43;;;4.85;;
60634;SDS011;46454;53.170;6.630;2022-07-05T02:54:56;8.38;;;4.75;;
60634;SDS011;46454;53.170;6.630;2022-07-05T02:57:22;6.70;;;4.90;;
60634;SDS011;46454;53.170;6.630;2022-07-05T02:59:47;5.28;;;4.78;;
60634;SDS011;46454;53.170;6.630;2022-07-05T03:02:13;7.53;;;4.88;;
60634;SDS011;46454;53.170;6.630;2022-07-05T03:04:39;7.28;;;5.30;;
60634;SDS011;46454;53.170;6.630;2022-07-05T03:07:04;6.05;;;4.75;;
60634;SDS011;46454;53.170;6.630;2022-07-05T03:09:30;6.68;;;4.65;;
60634;SDS011;46454;53.170;6.630;2022-07-05T03:11:56;6.30;;;4.97;;
60634;SDS011;46454;53.170;6.630;2022-07-05T03:14:21;8.35;;;5.10;;
60634;SDS011;46454;53.170;6.630;2022-07-05T03:16:47;7.63;;;5.10;;
60634;SDS011;46454;53.170;6.630;2022-07-05T03:19:13;6.95;;;4.75;;
60634;SDS011;46454;53.170;6.630;2022-07-05T03:21:39;5.68;;;4.40;;
60634;SDS011;46454;53.170;6.630;2022-07-05T03:24:05;7.13;;;5.20;;
60634;SDS011;46454;53.170;6.630;2022-07-05T03:26:31;7.15;;;5.80;;
60634;SDS011;46454;53.170;6.630;2022-07-05T03:28:56;8.32;;;5.18;;
60634;SDS011;46454;53.170;6.630;2022-07-05T03:31:22;6.45;;;5.13;;
60634;SDS011;46454;53.170;6.630;2022-07-05T03:33:48;7.15;;;5.35;;
60634;SDS011;46454;53.170;6.630;2022-07-05T03:36:14;6.93;;;6.03;;
60634;SDS011;46454;53.170;6.630;2022-07-05T03:38:39;7.55;;;5.63;;
60634;SDS011;46454;53.170;6.630;2022-07-05T03:41:05;8.05;;;5.50;;
60634;SDS011;46454;53.170;6.630;2022-07-05T03:43:31;8.40;;;6.30;;
60634;SDS011;46454;53.170;6.630;2022-07-05T03:45:57;7.00;;;6.10;;
60634;SDS011;46454;53.170;6.630;2022-07-05T03:48:22;7.07;;;6.15;;
60634;SDS011;46454;53.170;6.630;2022-07-05T03:50:48;7.28;;;5.15;;
60634;SDS011;46454;53.170;6.630;2022-07-05T03:53:14;6.70;;;5.30;;
60634;SDS011;46454;53.170;6.630;2022-07-05T03:55:40;9.32;;;6.00;;
60634;SDS011;46454;53.170;6.630;2022-07-05T03:58:06;7.78;;;5.70;;
60634;SDS011;46454;53.170;6.630;2022-07-05T04:00:32;8.15;;;5.57;;
60634;SDS011;46454;53.170;6.630;2022-07-05T04:02:59;7.47;;;5.75;;
60634;SDS011;46454;53.170;6.630;2022-07-05T04:05:24;8.02;;;6.05;;
60634;SDS011;46454;53.170;6.630;2022-07-05T04:07:50;7.15;;;5.53;;
60634;SDS011;46454;53.170;6.630;2022-07-05T04:10:17;7.68;;;6.03;;
60634;SDS011;46454;53.170;6.630;2022-07-05T04:12:44;7.65;;;6.20;;
60634;SDS011;46454;53.170;6.630;2022-07-05T04:15:10;6.22;;;5.60;;
60634;SDS011;46454;53.170;6.630;2022-07-05T04:17:52;6.95;;;5.65;;
60634;SDS011;46454;53.170;6.630;2022-07-05T04:20:20;8.65;;;6.00;;
60634;SDS011;46454;53.170;6.630;2022-07-05T04:22:47;6.15;;;5.22;;
60634;SDS011;46454;53.170;6.630;2022-07-05T04:25:14;6.70;;;5.78;;
60634;SDS011;46454;53.170;6.630;2022-07-05T04:30:09;9.02;;;6.45;;
60634;SDS011;46454;53.170;6.630;2022-07-05T04:32:35;7.78;;;6.20;;
60634;SDS011;46454;53.170;6.630;2022-07-05T04:35:01;6.50;;;5.75;;
60634;SDS011;46454;53.170;6.630;2022-07-05T04:37:27;7.20;;;5.85;;
60634;SDS011;46454;53.170;6.630;2022-07-05T04:39:53;6.95;;;5.85;;
60634;SDS011;46454;53.170;6.630;2022-07-05T04:42:19;7.88;;;5.43;;
60634;SDS011;46454;53.170;6.630;2022-07-05T04:44:44;8.32;;;5.90;;
60634;SDS011;46454;53.170;6.630;2022-07-05T04:47:10;9.55;;;6.50;;
60634;SDS011;46454;53.170;6.630;2022-07-05T04:49:36;9.05;;;6.03;;
60634;SDS011;46454;53.170;6.630;2022-07-05T04:52:01;7.47;;;5.93;;
60634;SDS011;46454;53.170;6.630;2022-07-05T04:54:27;7.43;;;5.78;;
60634;SDS011;46454;53.170;6.630;2022-07-05T04:56:53;8.35;;;6.07;;
60634;SDS011;46454;53.170;6.630;2022-07-05T04:59:19;7.28;;;5.38;;
60634;SDS011;46454;53.170;6.630;2022-07-05T05:01:44;7.80;;;4.80;;
60634;SDS011;46454;53.170;6.630;2022-07-05T05:04:10;8.63;;;5.20;;
60634;SDS011;46454;53.170;6.630;2022-07-05T05:06:36;8.25;;;4.85;;
60634;SDS011;46454;53.170;6.630;2022-07-05T05:09:02;7.03;;;4.90;;
60634;SDS011;46454;53.170;6.630;2022-07-05T05:11:27;6.38;;;4.72;;
60634;SDS011;46454;53.170;6.630;2022-07-05T05:13:53;7.53;;;5.35;;
60634;SDS011;46454;53.170;6.630;2022-07-05T05:16:19;7.10;;;4.68;;
60634;SDS011;46454;53.170;6.630;2022-07-05T05:18:45;6.60;;;4.43;;
60634;SDS011;46454;53.170;6.630;2022-07-05T05:21:11;7.72;;;4.32;;
60634;SDS011;46454;53.170;6.630;2022-07-05T05:23:37;6.68;;;4.13;;
60634;SDS011;46454;53.170;6.630;2022-07-05T05:26:02;9.00;;;4.68;;
60634;SDS011;46454;53.170;6.630;2022-07-05T05:28:28;6.53;;;4.40;;
60634;SDS011;46454;53.170;6.630;2022-07-05T05:30:54;6.63;;;4.18;;
60634;SDS011;46454;53.170;6.630;2022-07-05T05:33:20;6.85;;;3.97;;
60634;SDS011;46454;53.170;6.630;2022-07-05T05:35:45;6.60;;;4.40;;
60634;SDS011;46454;53.170;6.630;2022-07-05T05:38:11;6.00;;;3.90;;
60634;SDS011;46454;53.170;6.630;2022-07-05T05:43:30;6.80;;;3.80;;
60634;SDS011;46454;53.170;6.630;2022-07-05T05:45:56;6.97;;;3.80;;
60634;SDS011;46454;53.170;6.630;2022-07-05T05:48:23;5.40;;;4.03;;
60634;SDS011;46454;53.170;6.630;2022-07-05T05:50:49;5.63;;;3.70;;
60634;SDS011;46454;53.170;6.630;2022-07-05T05:53:16;8.70;;;3.78;;
60634;SDS011;46454;53.170;6.630;2022-07-05T05:55:41;6.32;;;3.75;;
60634;SDS011;46454;53.170;6.630;2022-07-05T05:58:11;5.35;;;3.53;;
60634;SDS011;46454;53.170;6.630;2022-07-05T06:00:37;5.93;;;3.45;;
60634;SDS011;46454;53.170;6.630;2022-07-05T06:03:03;4.78;;;3.17;;
60634;SDS011;46454;53.170;6.630;2022-07-05T06:05:29;5.13;;;2.97;;
60634;SDS011;46454;53.170;6.630;2022-07-05T06:07:55;5.45;;;3.15;;
60634;SDS011;46454;53.170;6.630;2022-07-05T06:10:22;6.55;;;3.20;;
60634;SDS011;46454;53.170;6.630;2022-07-05T06:12:50;4.55;;;2.75;;
60634;SDS011;46454;53.170;6.630;2022-07-05T06:15:17;6.80;;;3.10;;
60634;SDS011;46454;53.170;6.630;2022-07-05T06:17:43;6.38;;;2.83;;
60634;SDS011;46454;53.170;6.630;2022-07-05T06:20:13;5.53;;;2.90;;
60634;SDS011;46454;53.170;6.630;2022-07-05T06:22:49;5.40;;;2.67;;
60634;SDS011;46454;53.170;6.630;2022-07-05T06:25:16;7.00;;;2.70;;
60634;SDS011;46454;53.170;6.630;2022-07-05T06:27:44;5.10;;;2.42;;
60634;SDS011;46454;53.170;6.630;2022-07-05T06:30:15;4.75;;;2.35;;
60634;SDS011;46454;53.170;6.630;2022-07-05T06:32:43;6.70;;;2.30;;
60634;SDS011;46454;53.170;6.630;2022-07-05T06:35:10;7.40;;;2.67;;
60634;SDS011;46454;53.170;6.630;2022-07-05T06:37:45;6.50;;;2.35;;
60634;SDS011;46454;53.170;6.630;2022-07-05T06:40:14;6.97;;;2.47;;
60634;SDS011;46454;53.170;6.630;2022-07-05T06:42:46;5.72;;;2.17;;
60634;SDS011;46454;53.170;6.630;2022-07-05T06:45:12;4.97;;;2.00;;
60634;SDS011;46454;53.170;6.630;2022-07-05T06:47:38;6.70;;;1.95;;
60634;SDS011;46454;53.170;6.630;2022-07-05T06:50:04;6.95;;;1.95;;
60634;SDS011;46454;53.170;6.630;2022-07-05T06:52:31;6.65;;;1.75;;
60634;SDS011;46454;53.170;6.630;2022-07-05T06:55:00;3.75;;;1.45;;
60634;SDS011;46454;53.170;6.630;2022-07-05T06:57:27;4.05;;;1.40;;
60634;SDS011;46454;53.170;6.630;2022-07-05T06:59:52;4.30;;;1.42;;
60634;SDS011;46454;53.170;6.630;2022-07-05T07:02:18;4.45;;;1.40;;
60634;SDS011;46454;53.170;6.630;2022-07-05T07:04:44;5.07;;;1.40;;
60634;SDS011;46454;53.170;6.630;2022-07-05T07:07:11;4.75;;;1.67;;
60634;SDS011;46454;53.170;6.630;2022-07-05T07:09:59;3.95;;;1.23;;
60634;SDS011;46454;53.170;6.630;2022-07-05T07:12:25;4.13;;;1.10;;
60634;SDS011;46454;53.170;6.630;2022-07-05T07:14:51;4.57;;;1.52;;
60634;SDS011;46454;53.170;6.630;2022-07-05T07:17:17;2.65;;;1.02;;
60634;SDS011;46454;53.170;6.630;2022-07-05T07:19:42;2.83;;;1.13;;
60634;SDS011;46454;53.170;6.630;2022-07-05T07:22:08;4.40;;;1.20;;
60634;SDS011;46454;53.170;6.630;2022-07-05T07:24:34;2.70;;;0.90;;
60634;SDS011;46454;53.170;6.630;2022-07-05T07:27:00;2.75;;;1.05;;
60634;SDS011;46454;53.170;6.630;2022-07-05T07:29:29;3.72;;;1.08;;
60634;SDS011;46454;53.170;6.630;2022-07-05T07:31:56;3.22;;;0.85;;
60634;SDS011;46454;53.170;6.630;2022-07-05T07:34:23;5.90;;;0.90;;
60634;SDS011;46454;53.170;6.630;2022-07-05T07:36:49;5.13;;;1.08;;
60634;SDS011;46454;53.170;6.630;2022-07-05T07:39:15;4.63;;;1.17;;
60634;SDS011;46454;53.170;6.630;2022-07-05T07:41:41;3.80;;;1.00;;
60634;SDS011;46454;53.170;6.630;2022-07-05T07:44:07;5.00;;;1.00;;
60634;SDS011;46454;53.170;6.630;2022-07-05T07:46:32;5.88;;;1.00;;
60634;SDS011;46454;53.170;6.630;2022-07-05T07:48:58;3.90;;;1.02;;
60634;SDS011;46454;53.170;6.630;2022-07-05T07:51:24;5.50;;;1.00;;
60634;SDS011;46454;53.170;6.630;2022-07-05T07:53:50;3.72;;;0.95;;
60634;SDS011;46454;53.170;6.630;2022-07-05T07:56:16;3.67;;;0.93;;
60634;SDS011;46454;53.170;6.630;2022-07-05T07:58:42;4.28;;;1.08;;
60634;SDS011;46454;53.170;6.630;2022-07-05T08:01:08;6.15;;;1.15;;
60634;SDS011;46454;53.170;6.630;2022-07-05T08:03:42;4.78;;;1.10;;
60634;SDS011;46454;53.170;6.630;2022-07-05T08:06:08;3.08;;;0.95;;
60634;SDS011;46454;53.170;6.630;2022-07-05T08:08:36;4.63;;;1.13;;
60634;SDS011;46454;53.170;6.630;2022-07-05T08:11:03;8.38;;;1.08;;
60634;SDS011;46454;53.170;6.630;2022-07-05T08:13:29;3.72;;;1.10;;
60634;SDS011;46454;53.170;6.630;2022-07-05T08:15:55;6.57;;;1.00;;
60634;SDS011;46454;53.170;6.630;2022-07-05T08:18:22;4.70;;;1.02;;
60634;SDS011;46454;53.170;6.630;2022-07-05T08:21:06;2.55;;;0.90;;
60634;SDS011;46454;53.170;6.630;2022-07-05T08:23:50;4.40;;;1.17;;
60634;SDS011;46454;53.170;6.630;2022-07-05T08:26:16;4.03;;;1.10;;
60634;SDS011;46454;53.170;6.630;2022-07-05T08:28:43;5.53;;;1.05;;
60634;SDS011;46454;53.170;6.630;2022-07-05T08:31:09;4.75;;;1.20;;
60634;SDS011;46454;53.170;6.630;2022-07-05T08:33:34;5.35;;;0.90;;
60634;SDS011;46454;53.170;6.630;2022-07-05T08:36:00;4.03;;;1.00;;
60634;SDS011;46454;53.170;6.630;2022-07-05T08:38:26;4.32;;;1.00;;
60634;SDS011;46454;53.170;6.630;2022-07-05T08:40:52;4.68;;;1.10;;
60634;SDS011;46454;53.170;6.630;2022-07-05T08:43:24;4.00;;;1.08;;
60634;SDS011;46454;53.170;6.630;2022-07-05T08:45:50;2.95;;;0.88;;
60634;SDS011;46454;53.170;6.630;2022-07-05T08:48:19;4.43;;;1.00;;
60634;SDS011;46454;53.170;6.630;2022-07-05T08:50:46;5.00;;;1.45;;
60634;SDS011;46454;53.170;6.630;2022-07-05T08:53:17;7.15;;;1.27;;
60634;SDS011;46454;53.170;6.630;2022-07-05T08:55:44;5.93;;;1.13;;
60634;SDS011;46454;53.170;6.630;2022-07-05T08:58:10;5.03;;;1.23;;
60634;SDS011;46454;53.170;6.630;2022-07-05T09:00:40;3.05;;;0.90;;
60634;SDS011;46454;53.170;6.630;2022-07-05T09:03:07;2.80;;;0.88;;
60634;SDS011;46454;53.170;6.630;2022-07-05T09:05:39;5.75;;;1.00;;
60634;SDS011;46454;53.170;6.630;2022-07-05T09:08:09;2.63;;;1.10;;
60634;SDS011;46454;53.170;6.630;2022-07-05T09:10:38;3.63;;;0.82;;
60634;SDS011;46454;53.170;6.630;2022-07-05T09:13:07;3.28;;;1.00;;
60634;SDS011;46454;53.170;6.630;2022-07-05T09:15:33;3.40;;;1.10;;
60634;SDS011;46454;53.170;6.630;2022-07-05T09:17:59;4.63;;;1.27;;
60634;SDS011;46454;53.170;6.630;2022-07-05T09:20:25;5.25;;;1.00;;
60634;SDS011;46454;53.170;6.630;2022-07-05T09:22:55;4.53;;;1.10;;
60634;SDS011;46454;53.170;6.630;2022-07-05T09:25:22;6.30;;;1.00;;
60634;SDS011;46454;53.170;6.630;2022-07-05T09:33:01;5.43;;;1.13;;
60634;SDS011;46454;53.170;6.630;2022-07-05T09:35:33;3.53;;;1.08;;
60634;SDS011;46454;53.170;6.630;2022-07-05T09:38:01;3.47;;;0.90;;
60634;SDS011;46454;53.170;6.630;2022-07-05T09:40:31;3.08;;;1.10;;
60634;SDS011;46454;53.170;6.630;2022-07-05T09:43:10;5.00;;;1.00;;
60634;SDS011;46454;53.170;6.630;2022-07-05T09:45:37;7.72;;;1.20;;
60634;SDS011;46454;53.170;6.630;2022-07-05T09:48:03;5.38;;;1.48;;
60634;SDS011;46454;53.170;6.630;2022-07-05T09:50:35;5.50;;;1.20;;
60634;SDS011;46454;53.170;6.630;2022-07-05T09:53:01;4.15;;;0.90;;
60634;SDS011;46454;53.170;6.630;2022-07-05T09:55:33;4.57;;;1.20;;
60634;SDS011;46454;53.170;6.630;2022-07-05T09:57:59;4.38;;;1.00;;
60634;SDS011;46454;53.170;6.630;2022-07-05T10:00:25;4.45;;;1.23;;
60634;SDS011;46454;53.170;6.630;2022-07-05T10:02:52;2.15;;;0.80;;
60634;SDS011;46454;53.170;6.630;2022-07-05T10:05:24;4.00;;;0.98;;
60634;SDS011;46454;53.170;6.630;2022-07-05T10:07:51;2.53;;;0.90;;
60634;SDS011;46454;53.170;6.630;2022-07-05T10:12:48;3.45;;;1.00;;
60634;SDS011;46454;53.170;6.630;2022-07-05T10:15:20;3.97;;;1.20;;
60634;SDS011;46454;53.170;6.630;2022-07-05T10:18:06;5.90;;;1.20;;
60634;SDS011;46454;53.170;6.630;2022-07-05T10:20:44;3.63;;;1.00;;
60634;SDS011;46454;53.170;6.630;2022-07-05T10:23:15;7.07;;;1.00;;
60634;SDS011;46454;53.170;6.630;2022-07-05T10:25:46;2.83;;;1.00;;
60634;SDS011;46454;53.170;6.630;2022-07-05T10:28:14;3.05;;;1.00;;
60634;SDS011;46454;53.170;6.630;2022-07-05T10:30:47;4.72;;;0.90;;
60634;SDS011;46454;53.170;6.630;2022-07-05T10:33:15;6.10;;;1.45;;
60634;SDS011;46454;53.170;6.630;2022-07-05T10:35:46;5.50;;;1.00;;
60634;SDS011;46454;53.170;6.630;2022-07-05T10:38:12;4.05;;;1.02;;
60634;SDS011;46454;53.170;6.630;2022-07-05T10:40:42;3.72;;;1.00;;
60634;SDS011;46454;53.170;6.630;2022-07-05T10:43:12;3.80;;;1.00;;
60634;SDS011;46454;53.170;6.630;2022-07-05T10:45:39;3.30;;;1.00;;
60634;SDS011;46454;53.170;6.630;2022-07-05T10:48:18;5.25;;;0.90;;
60634;SDS011;46454;53.170;6.630;2022-07-05T10:50:52;5.15;;;1.00;;
60634;SDS011;46454;53.170;6.630;2022-07-05T10:53:22;3.42;;;1.10;;
60634;SDS011;46454;53.170;6.630;2022-07-05T10:55:53;3.67;;;1.00;;
60634;SDS011;46454;53.170;6.630;2022-07-05T11:06:05;2.65;;;0.90;;
60634;SDS011;46454;53.170;6.630;2022-07-05T11:11:24;4.35;;;0.98;;
60634;SDS011;46454;53.170;6.630;2022-07-05T11:13:50;5.40;;;1.00;;
60634;SDS011;46454;53.170;6.630;2022-07-05T11:16:20;4.18;;;1.02;;
60634;SDS011;46454;53.170;6.630;2022-07-05T11:18:50;2.78;;;1.10;;
60634;SDS011;46454;53.170;6.630;2022-07-05T11:21:37;4.53;;;1.10;;
60634;SDS011;46454;53.170;6.630;2022-07-05T11:26:42;5.28;;;0.98;;
60634;SDS011;46454;53.170;6.630;2022-07-05T11:29:39;2.72;;;0.80;;
60634;SDS011;46454;53.170;6.630;2022-07-05T11:32:07;2.95;;;0.70;;
60634;SDS011;46454;53.170;6.630;2022-07-05T11:34:38;4.03;;;1.00;;
60634;SDS011;46454;53.170;6.630;2022-07-05T11:37:27;4.50;;;0.80;;
60634;SDS011;46454;53.170;6.630;2022-07-05T11:42:36;2.17;;;0.90;;
60634;SDS011;46454;53.170;6.630;2022-07-05T11:45:11;3.72;;;0.70;;
60634;SDS011;46454;53.170;6.630;2022-07-05T11:47:37;3.03;;;0.82;;
60634;SDS011;46454;53.170;6.630;2022-07-05T11:50:04;6.50;;;0.90;;
60634;SDS011;46454;53.170;6.630;2022-07-05T11:52:31;2.75;;;1.17;;
60634;SDS011;46454;53.170;6.630;2022-07-05T11:54:58;1.88;;;0.88;;
60634;SDS011;46454;53.170;6.630;2022-07-05T11:57:25;3.85;;;0.90;;
60634;SDS011;46454;53.170;6.630;2022-07-05T11:59:51;3.90;;;0.90;;
60634;SDS011;46454;53.170;6.630;2022-07-05T12:02:17;5.30;;;0.90;;
60634;SDS011;46454;53.170;6.630;2022-07-05T12:04:47;3.35;;;1.02;;
60634;SDS011;46454;53.170;6.630;2022-07-05T12:07:27;3.63;;;0.90;;
60634;SDS011;46454;53.170;6.630;2022-07-05T12:09:57;4.57;;;0.88;;
60634;SDS011;46454;53.170;6.630;2022-07-05T12:12:41;3.25;;;0.80;;
60634;SDS011;46454;53.170;6.630;2022-07-05T12:15:17;4.18;;;0.70;;
60634;SDS011;46454;53.170;6.630;2022-07-05T12:17:48;3.78;;;1.10;;
60634;SDS011;46454;53.170;6.630;2022-07-05T12:20:20;4.75;;;1.17;;
60634;SDS011;46454;53.170;6.630;2022-07-05T12:22:47;6.68;;;1.02;;
60634;SDS011;46454;53.170;6.630;2022-07-05T12:25:14;4.80;;;1.05;;
60634;SDS011;46454;53.170;6.630;2022-07-05T12:27:43;5.13;;;1.10;;
60634;SDS011;46454;53.170;6.630;2022-07-05T12:30:10;6.68;;;1.15;;
60634;SDS011;46454;53.170;6.630;2022-07-05T12:32:53;8.02;;;1.00;;
60634;SDS011;46454;53.170;6.630;2022-07-05T12:35:26;6.05;;;1.13;;
60634;SDS011;46454;53.170;6.630;2022-07-05T12:37:53;4.85;;;1.05;;
60634;SDS011;46454;53.170;6.630;2022-07-05T12:40:21;4.13;;;1.10;;
60634;SDS011;46454;53.170;6.630;2022-07-05T12:42:47;3.00;;;1.00;;
60634;SDS011;46454;53.170;6.630;2022-07-05T12:45:26;3.38;;;0.90;;
60634;SDS011;46454;53.170;6.630;2022-07-05T12:47:52;4.47;;;0.98;;
60634;SDS011;46454;53.170;6.630;2022-07-05T12:50:19;5.72;;;1.10;;
60634;SDS011;46454;53.170;6.630;2022-07-05T12:55:57;3.28;;;0.90;;
60634;SDS011;46454;53.170;6.630;2022-07-05T12:58:51;4.43;;;1.00;;
60634;SDS011;46454;53.170;6.630;2022-07-05T13:01:21;6.30;;;0.98;;
60634;SDS011;46454;53.170;6.630;2022-07-05T13:03:56;4.20;;;1.00;;
60634;SDS011;46454;53.170;6.630;2022-07-05T13:12:12;4.90;;;1.13;;
60634;SDS011;46454;53.170;6.630;2022-07-05T13:14:39;5.30;;;1.00;;
60634;SDS011;46454;53.170;6.630;2022-07-05T13:17:10;5.43;;;1.20;;
60634;SDS011;46454;53.170;6.630;2022-07-05T13:19:38;3.08;;;0.90;;
60634;SDS011;46454;53.170;6.630;2022-07-05T13:22:05;4.18;;;1.40;;
60634;SDS011;46454;53.170;6.630;2022-07-05T13:24:31;5.95;;;1.15;;
60634;SDS011;46454;53.170;6.630;2022-07-05T13:26:57;2.80;;;1.00;;
60634;SDS011;46454;53.170;6.630;2022-07-05T13:29:23;3.58;;;1.10;;
60634;SDS011;46454;53.170;6.630;2022-07-05T13:31:49;4.40;;;1.10;;
60634;SDS011;46454;53.170;6.630;2022-07-05T13:34:15;2.38;;;0.90;;
60634;SDS011;46454;53.170;6.630;2022-07-05T13:36:41;4.30;;;1.10;;
60634;SDS011;46454;53.170;6.630;2022-07-05T13:39:07;2.30;;;0.90;;
60634;SDS011;46454;53.170;6.630;2022-07-05T13:41:33;5.45;;;0.93;;
60634;SDS011;46454;53.170;6.630;2022-07-05T13:43:59;2.72;;;0.90;;
60634;SDS011;46454;53.170;6.630;2022-07-05T13:46:24;3.17;;;1.00;;
60634;SDS011;46454;53.170;6.630;2022-07-05T13:48:50;4.45;;;0.90;;
60634;SDS011;46454;53.170;6.630;2022-07-05T13:51:16;3.75;;;0.90;;
60634;SDS011;46454;53.170;6.630;2022-07-05T13:53:42;3.85;;;1.10;;
60634;SDS011;46454;53.170;6.630;2022-07-05T13:56:08;7.40;;;1.17;;
60634;SDS011;46454;53.170;6.630;2022-07-05T13:58:34;3.45;;;0.80;;
60634;SDS011;46454;53.170;6.630;2022-07-05T14:01:00;3.95;;;1.13;;
60634;SDS011;46454;53.170;6.630;2022-07-05T14:03:27;4.75;;;1.25;;
60634;SDS011;46454;53.170;6.630;2022-07-05T14:05:53;4.15;;;1.17;;
60634;SDS011;46454;53.170;6.630;2022-07-05T14:08:19;3.90;;;1.10;;
60634;SDS011;46454;53.170;6.630;2022-07-05T14:10:52;4.43;;;1.38;;
60634;SDS011;46454;53.170;6.630;2022-07-05T14:13:21;4.50;;;1.38;;
60634;SDS011;46454;53.170;6.630;2022-07-05T14:15:48;3.63;;;1.20;;
60634;SDS011;46454;53.170;6.630;2022-07-05T14:18:15;5.28;;;1.05;;
60634;SDS011;46454;53.170;6.630;2022-07-05T14:20:43;2.17;;;0.90;;
60634;SDS011;46454;53.170;6.630;2022-07-05T14:23:09;4.75;;;1.00;;
60634;SDS011;46454;53.170;6.630;2022-07-05T14:25:36;4.13;;;0.90;;
60634;SDS011;46454;53.170;6.630;2022-07-05T14:28:02;6.43;;;1.00;;
60634;SDS011;46454;53.170;6.630;2022-07-05T14:30:33;4.68;;;1.00;;
60634;SDS011;46454;53.170;6.630;2022-07-05T14:32:59;4.75;;;1.15;;
60634;SDS011;46454;53.170;6.630;2022-07-05T14:35:25;5.22;;;1.10;;
60634;SDS011;46454;53.170;6.630;2022-07-05T14:37:52;2.85;;;0.82;;
60634;SDS011;46454;53.170;6.630;2022-07-05T14:40:17;4.57;;;0.90;;
60634;SDS011;46454;53.170;6.630;2022-07-05T14:42:44;4.97;;;0.90;;
60634;SDS011;46454;53.170;6.630;2022-07-05T14:45:10;4.97;;;0.80;;
60634;SDS011;46454;53.170;6.630;2022-07-05T14:47:36;3.90;;;0.90;;
60634;SDS011;46454;53.170;6.630;2022-07-05T14:50:01;1.88;;;0.77;;
60634;SDS011;46454;53.170;6.630;2022-07-05T14:52:29;3.10;;;1.00;;
60634;SDS011;46454;53.170;6.630;2022-07-05T14:54:56;2.85;;;1.10;;
60634;SDS011;46454;53.170;6.630;2022-07-05T14:57:22;3.40;;;0.90;;
60634;SDS011;46454;53.170;6.630;2022-07-05T14:59:47;5.50;;;1.05;;
60634;SDS011;46454;53.170;6.630;2022-07-05T15:02:13;4.05;;;1.00;;
60634;SDS011;46454;53.170;6.630;2022-07-05T15:04:40;4.95;;;1.10;;
60634;SDS011;46454;53.170;6.630;2022-07-05T15:07:06;3.78;;;0.90;;
60634;SDS011;46454;53.170;6.630;2022-07-05T15:09:32;4.05;;;1.15;;
60634;SDS011;46454;53.170;6.630;2022-07-05T15:11:57;3.80;;;1.05;;
60634;SDS011;46454;53.170;6.630;2022-07-05T15:14:23;4.05;;;1.00;;
60634;SDS011;46454;53.170;6.630;2022-07-05T15:16:52;2.35;;;1.02;;
60634;SDS011;46454;53.170;6.630;2022-07-05T15:19:19;3.80;;;1.00;;
60634;SDS011;46454;53.170;6.630;2022-07-05T15:21:44;2.30;;;0.90;;
60634;SDS011;46454;53.170;6.630;2022-07-05T15:24:10;2.33;;;0.90;;
60634;SDS011;46454;53.170;6.630;2022-07-05T15:26:36;3.47;;;1.00;;
60634;SDS011;46454;53.170;6.630;2022-07-05T15:29:02;4.43;;;1.00;;